createdAt,value
2018-12-08T08:24:10.901Z,17.40
2018-12-08T08:27:15.744Z,21.97
2018-12-08T08:30:20.304Z,22.50
2018-12-08T08:33:24.523Z,15.63
2018-12-08T08:36:28.807Z,19.33
2018-12-08T08:39:33.019Z,16.50
2018-12-08T08:42:37.348Z,20.90
2018-12-08T08:45:41.550Z,28.57
2018-12-08T08:48:45.787Z,13.63
2018-12-08T08:51:49.987Z,21.57
2018-12-08T08:54:54.208Z,20.13
2018-12-08T08:57:58.399Z,15.90
2018-12-08T09:01:02.596Z,15.33
2018-12-08T09:04:06.914Z,25.30
2018-12-08T09:07:11.279Z,8.47
2018-12-08T09:10:15.627Z,21.13
2018-12-08T09:13:19.900Z,19.77
2018-12-08T09:16:24.095Z,16.17
2018-12-08T09:19:28.400Z,16.73
2018-12-08T09:22:32.632Z,18.63
2018-12-08T09:25:36.935Z,15.80
2018-12-08T09:28:41.328Z,17.87
2018-12-08T09:31:45.643Z,8.07
2018-12-08T09:34:49.839Z,12.90
2018-12-08T09:37:54.173Z,15.97
2018-12-08T09:40:58.415Z,11.07
2018-12-08T09:44:02.718Z,19.47
2018-12-08T09:47:07.000Z,9.27
2018-12-08T09:50:11.408Z,8.47
2018-12-08T09:53:18.627Z,14.20
2018-12-08T09:56:22.896Z,9.33
2018-12-08T09:59:27.106Z,18.83
2018-12-08T10:02:31.306Z,12.30
2018-12-08T10:05:35.748Z,12.83
2018-12-08T10:08:40.015Z,13.53
2018-12-08T10:11:44.403Z,9.17
2018-12-08T10:14:48.667Z,11.97
2018-12-08T10:17:52.879Z,11.20
2018-12-08T10:20:57.232Z,14.37
2018-12-08T10:24:01.573Z,14.93
2018-12-08T10:27:05.775Z,18.67
2018-12-08T10:30:11.046Z,16.50
2018-12-08T10:33:15.295Z,17.33
2018-12-08T10:36:19.586Z,22.77
2018-12-08T10:39:23.854Z,21.37
2018-12-08T10:42:28.139Z,19.60
2018-12-08T10:45:32.401Z,26.37
2018-12-08T10:48:36.696Z,21.87
2018-12-08T10:51:40.958Z,22.13
2018-12-08T10:54:45.219Z,28.70
2018-12-08T10:57:49.422Z,15.57
2018-12-08T11:01:30.895Z,18.23
2018-12-08T11:04:35.216Z,27.53
2018-12-08T11:07:39.524Z,22.17
2018-12-08T11:10:43.837Z,17.73
2018-12-08T11:13:48.125Z,18.57
2018-12-08T11:16:52.413Z,18.70
2018-12-08T11:19:56.624Z,23.60
2018-12-08T11:23:00.826Z,21.77
2018-12-08T11:26:05.192Z,18.57
2018-12-08T11:29:09.426Z,16.47
2018-12-08T11:32:13.679Z,32.33
2018-12-08T11:35:17.958Z,27.00
2018-12-08T11:38:22.167Z,31.60
2018-12-08T11:41:26.385Z,21.30
2018-12-08T11:44:30.885Z,22.97
2018-12-08T11:47:35.083Z,18.17
2018-12-08T11:50:39.360Z,22.30
2018-12-08T11:53:43.572Z,26.57
2018-12-08T11:56:47.875Z,14.30
2018-12-08T11:59:52.151Z,22.07
2018-12-08T12:02:56.548Z,18.40
2018-12-08T12:06:00.827Z,23.57
2018-12-08T12:09:08.282Z,30.40
2018-12-08T12:12:12.495Z,31.53
2018-12-08T12:15:16.869Z,35.87
2018-12-08T12:18:21.118Z,30.83
2018-12-08T12:21:25.411Z,33.20
2018-12-08T12:24:29.672Z,28.13
2018-12-08T12:27:33.999Z,20.87
2018-12-08T12:30:38.431Z,26.77
2018-12-08T12:33:42.735Z,25.97
2018-12-08T12:36:47.033Z,24.93
2018-12-08T12:39:51.395Z,25.53
2018-12-08T12:42:55.671Z,24.77
2018-12-08T12:45:59.882Z,27.07
2018-12-08T12:49:04.284Z,22.80
2018-12-08T12:52:08.559Z,18.23
2018-12-08T12:55:12.902Z,24.97
2018-12-08T12:58:17.147Z,21.80
2018-12-08T13:01:21.400Z,23.33
2018-12-08T13:04:25.694Z,22.77
2018-12-08T13:07:29.982Z,18.27
2018-12-08T13:10:34.239Z,25.33
2018-12-08T13:13:38.498Z,14.63
2018-12-08T13:16:43.084Z,24.23
2018-12-08T13:19:47.349Z,17.87
2018-12-08T13:22:51.583Z,31.37
2018-12-08T13:25:55.777Z,31.00
2018-12-08T13:28:59.988Z,34.10
2018-12-08T13:32:04.279Z,32.00
2018-12-08T13:35:10.840Z,23.07
2018-12-08T13:38:15.168Z,23.83
2018-12-08T13:41:19.498Z,18.30
2018-12-08T13:44:40.158Z,21.60
2018-12-08T13:47:45.148Z,18.17
2018-12-08T13:50:49.803Z,18.73
2018-12-08T13:53:54.003Z,22.30
2018-12-08T13:56:58.216Z,10.93
2018-12-08T14:00:02.655Z,10.30
2018-12-08T14:03:07.041Z,17.57
2018-12-08T14:06:11.295Z,22.83
2018-12-08T14:09:15.514Z,30.30
2018-12-08T14:12:19.775Z,28.43
2018-12-08T14:15:23.963Z,30.77
2018-12-08T14:18:28.154Z,27.40
2018-12-08T14:21:32.480Z,29.27
2018-12-08T14:24:36.658Z,47.83
2018-12-08T14:27:41.014Z,30.37
2018-12-08T14:30:45.262Z,35.57
2018-12-08T14:33:49.567Z,25.43
2018-12-08T14:36:53.774Z,22.17
2018-12-08T14:39:58.044Z,22.10
2018-12-08T14:43:02.392Z,17.67
2018-12-08T14:46:06.673Z,23.23
2018-12-08T14:49:11.026Z,9.30
2018-12-08T14:52:15.310Z,15.00
2018-12-08T14:55:19.625Z,10.37
2018-12-08T14:58:23.823Z,9.07
2018-12-08T15:01:28.320Z,15.77
2018-12-08T15:04:32.599Z,16.57
2018-12-08T15:07:37.044Z,20.27
2018-12-08T15:10:41.391Z,16.37
2018-12-08T15:13:45.723Z,19.07
2018-12-08T15:16:49.965Z,28.83
2018-12-08T15:19:54.287Z,26.03
2018-12-08T15:22:58.588Z,24.70
2018-12-08T15:26:05.913Z,19.43
2018-12-08T15:29:11.914Z,17.70
2018-12-08T15:32:16.350Z,18.67
2018-12-08T15:35:20.855Z,28.37
2018-12-08T15:38:25.108Z,33.23
2018-12-08T15:41:32.229Z,27.27
2018-12-08T15:44:37.171Z,19.17
2018-12-08T15:47:41.791Z,27.20
2018-12-08T15:50:46.278Z,41.17
2018-12-08T15:53:50.617Z,41.97
2018-12-08T15:56:54.868Z,42.83
2018-12-08T15:59:59.244Z,46.23
2018-12-08T16:03:03.462Z,45.73
2018-12-08T16:06:07.803Z,62.13
2018-12-08T16:09:12.146Z,44.30
2018-12-08T16:12:16.528Z,29.93
2018-12-08T16:15:20.883Z,65.17
2018-12-08T16:18:25.152Z,27.90
2018-12-08T16:21:29.380Z,36.70
2018-12-08T16:24:33.711Z,38.97
2018-12-08T16:27:37.965Z,33.33
2018-12-08T16:30:42.187Z,37.40
2018-12-08T16:33:46.478Z,39.70
2018-12-08T16:36:50.675Z,32.10
2018-12-08T16:39:54.889Z,37.93
2018-12-08T16:42:59.250Z,44.50
2018-12-08T16:46:03.642Z,33.87
2018-12-08T16:49:07.950Z,59.53
2018-12-08T16:52:12.272Z,38.47
2018-12-08T16:55:16.666Z,43.23
2018-12-08T16:58:20.962Z,51.70
2018-12-08T17:01:25.421Z,63.23
2018-12-08T17:04:29.815Z,45.93
2018-12-08T17:07:34.203Z,37.80
2018-12-08T17:10:38.511Z,25.13
2018-12-08T17:13:42.748Z,47.97
2018-12-08T17:16:47.094Z,85.60
2018-12-08T17:19:51.489Z,26.13
2018-12-08T17:22:55.823Z,34.20
2018-12-08T17:26:00.172Z,38.37
2018-12-08T17:29:06.047Z,24.87
2018-12-08T17:32:10.703Z,33.00
2018-12-08T17:35:15.009Z,18.13
2018-12-08T17:38:19.215Z,31.13
2018-12-08T17:41:23.576Z,33.73
2018-12-08T17:44:27.812Z,28.80
2018-12-08T17:47:32.079Z,39.57
2018-12-08T17:50:36.346Z,35.40
2018-12-08T17:53:40.663Z,35.60
2018-12-08T17:56:44.854Z,25.93
2018-12-08T17:59:49.252Z,33.27
2018-12-08T18:02:53.609Z,35.37
2018-12-08T18:05:58.111Z,29.30
2018-12-08T18:09:02.466Z,35.20
2018-12-08T18:12:07.372Z,32.63
2018-12-08T18:15:11.824Z,29.10
2018-12-08T18:18:16.193Z,32.50
2018-12-08T18:21:20.499Z,26.37
2018-12-08T18:24:25.052Z,31.40
2018-12-08T18:27:29.457Z,44.90
2018-12-08T18:30:33.773Z,29.00
2018-12-08T18:33:37.986Z,32.73
2018-12-08T18:36:42.302Z,33.30
2018-12-08T18:39:46.523Z,31.73
2018-12-08T18:42:50.786Z,24.90
2018-12-08T18:45:55.159Z,31.17
2018-12-08T18:48:59.532Z,30.27
2018-12-08T18:52:03.886Z,40.10
2018-12-08T18:55:08.379Z,45.33
2018-12-08T18:58:12.688Z,54.13
2018-12-08T19:01:17.056Z,40.67
2018-12-08T19:04:21.339Z,49.43
2018-12-08T19:07:25.566Z,64.37
2018-12-08T19:10:29.921Z,52.37
2018-12-08T19:13:34.250Z,48.83
2018-12-08T19:16:38.451Z,32.60
2018-12-08T19:19:42.776Z,20.83
2018-12-08T19:22:47.106Z,29.13
2018-12-08T19:25:51.402Z,40.47
2018-12-08T19:28:55.705Z,37.27
2018-12-08T19:31:59.905Z,51.93
2018-12-08T19:35:04.290Z,36.97
2018-12-08T19:38:08.523Z,30.70
2018-12-08T19:41:12.872Z,26.37
2018-12-08T19:44:17.070Z,23.17
2018-12-08T19:47:21.389Z,31.53
2018-12-08T19:50:25.670Z,33.37
2018-12-08T19:53:29.974Z,28.20
2018-12-08T19:56:34.232Z,29.40
2018-12-08T19:59:38.703Z,29.73
2018-12-08T20:02:42.940Z,42.23
2018-12-08T20:05:47.146Z,24.20
2018-12-08T20:08:51.548Z,30.30
2018-12-08T20:11:55.775Z,22.13
2018-12-08T20:15:00.001Z,35.03
2018-12-08T20:18:04.271Z,27.13
2018-12-08T20:21:08.710Z,29.73
2018-12-08T20:24:13.012Z,30.67
2018-12-08T20:27:17.251Z,23.23
2018-12-08T20:30:21.552Z,22.30
2018-12-08T20:33:25.789Z,33.80
2018-12-08T20:36:30.052Z,27.10
2018-12-08T20:39:34.278Z,21.07
2018-12-08T20:42:38.511Z,18.67
2018-12-08T20:45:42.737Z,31.10
2018-12-08T20:48:46.947Z,29.53
2018-12-08T20:51:51.308Z,31.37
2018-12-08T20:54:55.674Z,31.63
2018-12-08T20:58:00.055Z,29.40
2018-12-08T21:01:04.339Z,38.07
2018-12-08T21:04:08.543Z,41.43
2018-12-08T21:07:12.818Z,46.20
2018-12-08T21:10:17.144Z,44.83
2018-12-08T21:13:21.407Z,30.73
2018-12-08T21:16:25.598Z,27.53
2018-12-08T21:19:29.931Z,29.50
2018-12-08T21:22:34.364Z,24.70
2018-12-08T21:25:38.592Z,29.80
2018-12-08T21:28:42.792Z,29.37
2018-12-08T21:31:47.000Z,29.30
2018-12-08T21:34:51.309Z,30.57
2018-12-08T21:37:55.523Z,31.70
2018-12-08T21:40:59.721Z,29.77
2018-12-08T21:44:04.018Z,33.33
2018-12-08T21:47:08.312Z,27.37
2018-12-08T21:50:12.579Z,24.87
2018-12-08T21:53:16.790Z,25.50
2018-12-08T21:56:21.002Z,23.20
2018-12-08T21:59:25.309Z,26.53
2018-12-08T22:02:29.727Z,31.40
2018-12-08T22:05:34.072Z,28.17
2018-12-08T22:08:38.304Z,18.73
2018-12-08T22:11:42.638Z,25.13
2018-12-08T22:14:52.259Z,31.63
2018-12-08T22:17:56.464Z,31.43
2018-12-08T22:21:00.647Z,36.77
2018-12-08T22:24:05.064Z,31.83
2018-12-08T22:27:09.283Z,29.00
2018-12-08T22:30:13.515Z,31.57
2018-12-08T22:33:17.735Z,23.03
2018-12-08T22:36:21.951Z,20.33
2018-12-08T22:39:26.247Z,28.20
2018-12-08T22:42:30.550Z,21.87
2018-12-08T22:45:34.824Z,22.50
2018-12-08T22:48:39.042Z,23.60
2018-12-08T22:51:43.311Z,22.47
2018-12-08T22:54:47.682Z,24.53
2018-12-08T22:57:51.887Z,23.13
2018-12-08T23:00:56.264Z,32.67
2018-12-08T23:04:00.448Z,26.17
2018-12-08T23:07:06.754Z,29.47
2018-12-08T23:10:11.059Z,25.13
2018-12-08T23:13:15.380Z,20.73
2018-12-08T23:16:19.582Z,28.40
2018-12-08T23:19:23.807Z,31.30
2018-12-08T23:22:28.040Z,22.90
2018-12-08T23:25:32.466Z,21.60
2018-12-08T23:28:36.899Z,36.23
2018-12-08T23:31:41.342Z,24.47
2018-12-08T23:34:45.642Z,26.37
2018-12-08T23:37:49.917Z,22.40
2018-12-08T23:40:54.219Z,23.07
2018-12-08T23:43:58.408Z,30.40
2018-12-08T23:47:02.691Z,31.20
2018-12-08T23:50:09.153Z,24.10
2018-12-08T23:53:13.359Z,25.23
2018-12-08T23:56:17.571Z,28.40
2018-12-08T23:59:21.935Z,26.37
